Andover, Connecticut
Current Conditions -  °F | °C
As of 1:52 PM on Sunday 23 Nov 2014 (Local Time) from KIJD Reporting Station
Broken Clouds Broken Clouds  
Wind Chill: 61°   Ceiling: 8000
Heat Index: 61°   Visibility: 10mi
Dew Point: 31°   Wind: 0mph
Humidity: 32%   Direction: NA
Pressure: 30.12"   Gusts: NA
Location:  41.74°N, 72.37°W
Report Text: KIJD 231852Z AUTO 00000KT 10SM BKN080 16/M01 A3012 RMK AO2 SLP199 T01611006
Loading
Personal Weather Stations






























Interactive Weather Map New forecast layout! Learn more

10-Day Weather Forecast

Advertisements
Track Severe Weather on mobile